Station Historical Data
Daily Summary for November 27, 2017 Units:  English    Metric   Both
« Previous Day
Next Day »
Daily Weekly Monthly Yearly Custom
  High: Low: Average:
Temperature: 43.1 °F 29.3 °F 36.3 °F
Dew Point: 30.3 °F 24.2 °F 27.8 °F
Humidity: 82% 58% 71%
Wind Speed: 10.0mph 0.0mph 3.5mph
Wind Gust: 18.0mph - -
Wind- - SW
Pressure: 30.22 in 29.92 in -
Precipitation: 0.00 in    
Historical Graphs
 
 
Tabular Data for November 27, 2017
Time Temperature Dew Point Pressure Wind Wind Speed Wind Gust Humidity Rainfall Rate (Hourly)
00:04 40.0 °F 28.8 °F 29.93 in West 4.0 mph 15.0 mph 64% 0.00 in
00:09 39.8 °F 29.0 °F 29.93 in West 9.0 mph 14.0 mph 65% 0.00 in
00:14 39.8 °F 29.0 °F 29.93 in SW 8.0 mph 12.0 mph 65% 0.00 in
00:19 39.5 °F 28.7 °F 29.93 in WSW 5.0 mph 11.0 mph 65% 0.00 in
00:24 39.6 °F 29.2 °F 29.93 in West 7.0 mph 15.0 mph 66% 0.00 in
00:29 39.5 °F 29.1 °F 29.92 in West 7.0 mph 15.0 mph 66% 0.00 in
00:34 39.4 °F 29.0 °F 29.92 in West 7.0 mph 13.0 mph 66% 0.00 in
00:39 39.3 °F 28.9 °F 29.92 in West 7.0 mph 16.0 mph 66% 0.00 in
00:44 39.1 °F 28.7 °F 29.92 in West 7.0 mph 16.0 mph 66% 0.00 in
00:49 39.0 °F 29.0 °F 29.92 in West 6.0 mph 13.0 mph 67% 0.00 in
00:54 38.8 °F 28.8 °F 29.92 in West 6.0 mph 13.0 mph 67% 0.00 in
00:59 38.8 °F 28.8 °F 29.93 in West 6.0 mph 15.0 mph 67% 0.00 in
01:04 38.8 °F 28.8 °F 29.93 in West 8.0 mph 15.0 mph 67% 0.00 in
01:09 38.8 °F 28.8 °F 29.93 in West 7.0 mph 14.0 mph 67% 0.00 in
01:14 38.7 °F 29.0 °F 29.93 in WNW 4.0 mph 14.0 mph 68% 0.00 in
01:24 38.3 °F 28.7 °F 29.93 in West 6.0 mph 12.0 mph 68% 0.00 in
01:29 38.3 °F 29.0 °F 29.94 in West 7.0 mph 12.0 mph 69% 0.00 in
01:34 38.1 °F 28.8 °F 29.94 in West 4.0 mph 13.0 mph 69% 0.00 in
01:39 38.1 °F 28.8 °F 29.94 in NNW 6.0 mph 12.0 mph 69% 0.00 in
01:44 38.1 °F 28.8 °F 29.95 in WSW 3.0 mph 13.0 mph 69% 0.00 in
01:49 38.0 °F 28.7 °F 29.95 in WNW 8.0 mph 14.0 mph 69% 0.00 in
01:54 38.0 °F 29.1 °F 29.95 in West 6.0 mph 14.0 mph 70% 0.00 in
01:59 38.0 °F 29.1 °F 29.95 in West 6.0 mph 13.0 mph 70% 0.00 in
02:04 38.0 °F 29.1 °F 29.96 in West 7.0 mph 16.0 mph 70% 0.00 in
02:09 38.1 °F 29.2 °F 29.96 in West 7.0 mph 16.0 mph 70% 0.00 in
02:14 38.0 °F 29.1 °F 29.96 in West 7.0 mph 15.0 mph 70% 0.00 in
02:19 38.0 °F 29.1 °F 29.96 in WNW 5.0 mph 13.0 mph 70% 0.00 in
02:24 38.0 °F 29.4 °F 29.96 in West 7.0 mph 18.0 mph 71% 0.00 in
02:29 38.0 °F 29.1 °F 29.96 in West 4.0 mph 12.0 mph 70% 0.00 in
02:34 37.9 °F 29.3 °F 29.97 in West 4.0 mph 11.0 mph 71% 0.00 in
02:39 37.9 °F 29.3 °F 29.97 in West 5.0 mph 14.0 mph 71% 0.00 in
02:44 37.7 °F 29.1 °F 29.97 in West 9.0 mph 16.0 mph 71% 0.00 in
02:49 37.7 °F 29.1 °F 29.97 in West 3.0 mph 12.0 mph 71% 0.00 in
02:54 37.5 °F 29.3 °F 29.97 in West 6.0 mph 12.0 mph 72% 0.00 in
02:59 37.3 °F 29.1 °F 29.97 in West 5.0 mph 11.0 mph 72% 0.00 in
03:04 37.3 °F 29.1 °F 29.97 in West 6.0 mph 14.0 mph 72% 0.00 in
03:09 37.3 °F 29.1 °F 29.97 in West 7.0 mph 15.0 mph 72% 0.00 in
03:14 37.3 °F 29.4 °F 29.96 in West 7.0 mph 15.0 mph 73% 0.00 in
03:19 37.2 °F 29.3 °F 29.97 in West 6.0 mph 14.0 mph 73% 0.00 in
03:24 37.1 °F 29.2 °F 29.97 in WNW 8.0 mph 11.0 mph 73% 0.00 in
03:29 37.1 °F 29.2 °F 29.97 in WNW 9.0 mph 12.0 mph 73% 0.00 in
03:34 37.0 °F 29.5 °F 29.97 in West 7.0 mph 12.0 mph 74% 0.00 in
03:39 37.1 °F 29.6 °F 29.97 in WNW 5.0 mph 11.0 mph 74% 0.00 in
03:44 37.0 °F 29.5 °F 29.97 in West 5.0 mph 10.0 mph 74% 0.00 in
03:49 37.0 °F 29.5 °F 29.98 in West 6.0 mph 11.0 mph 74% 0.00 in
03:54 37.0 °F 29.5 °F 29.98 in WNW 6.0 mph 12.0 mph 74% 0.00 in
03:59 37.0 °F 29.5 °F 29.98 in WNW 6.0 mph 12.0 mph 74% 0.00 in
04:04 37.0 °F 29.5 °F 29.99 in West 6.0 mph 12.0 mph 74% 0.00 in
04:09 36.9 °F 29.7 °F 29.99 in West 6.0 mph 12.0 mph 75% 0.00 in
04:14 36.8 °F 29.6 °F 30.00 in West 5.0 mph 9.0 mph 75% 0.00 in
04:19 36.7 °F 29.5 °F 30.00 in West 5.0 mph 10.0 mph 75% 0.00 in
04:24 36.6 °F 29.4 °F 30.00 in West 5.0 mph 8.0 mph 75% 0.00 in
04:29 36.6 °F 29.7 °F 30.00 in West 5.0 mph 10.0 mph 76% 0.00 in
04:34 36.6 °F 29.7 °F 30.01 in WNW 7.0 mph 10.0 mph 76% 0.00 in
04:39 36.5 °F 29.7 °F 30.01 in West 3.0 mph 9.0 mph 76% 0.00 in
04:44 36.4 °F 29.6 °F 30.01 in WNW 3.0 mph 8.0 mph 76% 0.00 in
04:49 36.3 °F 29.5 °F 30.00 in West 10.0 mph 11.0 mph 76% 0.00 in
04:54 36.2 °F 29.4 °F 30.00 in West 4.0 mph 10.0 mph 76% 0.00 in
04:59 36.2 °F 29.7 °F 30.00 in West 5.0 mph 10.0 mph 77% 0.00 in
05:04 36.3 °F 29.8 °F 30.01 in West 5.0 mph 10.0 mph 77% 0.00 in
05:09 36.3 °F 29.8 °F 30.01 in West 4.0 mph 9.0 mph 77% 0.00 in
05:14 36.2 °F 29.7 °F 30.01 in West 4.0 mph 9.0 mph 77% 0.00 in
05:19 36.2 °F 29.7 °F 30.02 in West 4.0 mph 11.0 mph 77% 0.00 in
05:24 36.3 °F 29.8 °F 30.02 in West 5.0 mph 11.0 mph 77% 0.00 in
05:29 36.4 °F 29.9 °F 30.03 in West 3.0 mph 7.0 mph 77% 0.00 in
05:34 36.4 °F 29.9 °F 30.03 in West 4.0 mph 8.0 mph 77% 0.00 in
05:35 36.4 °F 29.9 °F 30.03 in West 3.0 mph 8.0 mph 77% 0.00 in
05:39 36.4 °F 29.9 °F 30.02 in West 3.0 mph 8.0 mph 77% 0.00 in
05:44 36.2 °F 29.7 °F 30.03 in West 4.0 mph 8.0 mph 77% 0.00 in
05:49 35.9 °F 29.4 °F 30.03 in West 5.0 mph 8.0 mph 77% 0.00 in
05:54 35.6 °F 29.1 °F 30.03 in West 3.0 mph 6.0 mph 77% 0.00 in
05:59 35.3 °F 28.8 °F 30.04 in WNW 2.0 mph 6.0 mph 77% 0.00 in
06:04 35.2 °F 28.7 °F 30.04 in West 4.0 mph 8.0 mph 77% 0.00 in
06:09 35.1 °F 28.6 °F 30.05 in West 4.0 mph 8.0 mph 77% 0.00 in
06:14 35.0 °F 28.8 °F 30.05 in West 4.0 mph 7.0 mph 78% 0.00 in
06:19 34.9 °F 28.7 °F 30.05 in West 4.0 mph 7.0 mph 78% 0.00 in
06:24 34.9 °F 28.7 °F 30.06 in West 4.0 mph 7.0 mph 78% 0.00 in
06:29 34.9 °F 28.7 °F 30.06 in West 4.0 mph 9.0 mph 78% 0.00 in
06:34 34.9 °F 28.7 °F 30.07 in West 3.0 mph 7.0 mph 78% 0.00 in
06:39 35.0 °F 28.8 °F 30.07 in West 4.0 mph 8.0 mph 78% 0.00 in
06:44 35.0 °F 28.8 °F 30.07 in West 4.0 mph 8.0 mph 78% 0.00 in
06:49 35.1 °F 28.9 °F 30.07 in West 4.0 mph 8.0 mph 78% 0.00 in
06:54 35.0 °F 28.8 °F 30.07 in West 3.0 mph 5.0 mph 78% 0.00 in
06:59 34.8 °F 28.6 °F 30.07 in West 4.0 mph 8.0 mph 78% 0.00 in
07:04 34.8 °F 28.6 °F 30.07 in West 5.0 mph 9.0 mph 78% 0.00 in
07:09 34.8 °F 28.6 °F 30.08 in West 4.0 mph 9.0 mph 78% 0.00 in
07:14 34.7 °F 28.5 °F 30.08 in West 4.0 mph 7.0 mph 78% 0.00 in
07:19 34.6 °F 28.4 °F 30.08 in West 4.0 mph 9.0 mph 78% 0.00 in
07:24 34.5 °F 28.3 °F 30.08 in West 2.0 mph 7.0 mph 78% 0.00 in
07:29 34.4 °F 28.2 °F 30.08 in West 2.0 mph 5.0 mph 78% 0.00 in
07:34 34.3 °F 28.2 °F 30.08 in WNW 3.0 mph 7.0 mph 78% 0.00 in
07:39 34.2 °F 28.1 °F 30.09 in West 4.0 mph 6.0 mph 78% 0.00 in
07:44 34.1 °F 28.0 °F 30.09 in West 3.0 mph 6.0 mph 78% 0.00 in
07:49 34.1 °F 28.3 °F 30.09 in West 2.0 mph 5.0 mph 79% 0.00 in
07:54 34.1 °F 28.3 °F 30.09 in West 3.0 mph 4.0 mph 79% 0.00 in
07:59 34.4 °F 28.6 °F 30.09 in West 2.0 mph 5.0 mph 79% 0.00 in
08:04 34.8 °F 29.0 °F 30.09 in Calm   6.0 mph 79% 0.00 in
08:09 35.1 °F 28.9 °F 30.10 in West 4.0 mph 6.0 mph 78% 0.00 in
08:14 35.3 °F 28.8 °F 30.09 in West 3.0 mph 6.0 mph 77% 0.00 in
08:19 35.6 °F 28.5 °F 30.10 in West 3.0 mph 6.0 mph 75% 0.00 in
08:24 35.7 °F 28.6 °F 30.10 in West 3.0 mph 5.0 mph 75% 0.00 in
08:29 35.8 °F 28.3 °F 30.10 in West 4.0 mph 7.0 mph 74% 0.00 in
08:34 36.0 °F 28.2 °F 30.11 in WNW 5.0 mph 7.0 mph 73% 0.00 in
08:39 36.0 °F 28.2 °F 30.11 in WNW 3.0 mph 8.0 mph 73% 0.00 in
08:44 36.2 °F 28.4 °F 30.11 in West 3.0 mph 4.0 mph 73% 0.00 in
08:49 36.3 °F 28.1 °F 30.12 in West 3.0 mph 6.0 mph 72% 0.00 in
08:54 36.7 °F 28.2 °F 30.12 in West 4.0 mph 6.0 mph 71% 0.00 in
08:59 37.0 °F 28.5 °F 30.12 in West 3.0 mph 6.0 mph 71% 0.00 in
09:04 37.1 °F 28.6 °F 30.12 in West 3.0 mph 7.0 mph 71% 0.00 in
09:09 37.2 °F 28.3 °F 30.12 in West 4.0 mph 11.0 mph 70% 0.00 in
09:10 37.2 °F 28.3 °F 30.12 in West 6.0 mph 11.0 mph 70% 0.00 in
09:19 37.7 °F 28.1 °F 30.13 in West 5.0 mph 9.0 mph 68% 0.00 in
09:24 37.8 °F 27.8 °F 30.13 in West 5.0 mph 9.0 mph 67% 0.00 in
09:29 38.2 °F 28.2 °F 30.13 in WNW 5.0 mph 9.0 mph 67% 0.00 in
09:34 38.6 °F 28.2 °F 30.13 in SW 5.0 mph 8.0 mph 66% 0.00 in
09:39 38.9 °F 28.1 °F 30.13 in WNW 4.0 mph 9.0 mph 65% 0.00 in
09:44 39.0 °F 28.2 °F 30.13 in WNW 8.0 mph 8.0 mph 65% 0.00 in
09:49 38.8 °F 27.3 °F 30.13 in West 5.0 mph 11.0 mph 63% 0.00 in
09:54 39.3 °F 27.7 °F 30.13 in WNW 6.0 mph 11.0 mph 63% 0.00 in
09:59 39.6 °F 27.6 °F 30.13 in WNW 5.0 mph 12.0 mph 62% 0.00 in
10:04 40.0 °F 27.6 °F 30.13 in WNW 4.0 mph 12.0 mph 61% 0.00 in
10:14 40.2 °F 27.4 °F 30.13 in WNW 4.0 mph 8.0 mph 60% 0.00 in
10:19 40.7 °F 27.9 °F 30.14 in West 9.0 mph 11.0 mph 60% 0.00 in
10:24 40.7 °F 27.9 °F 30.14 in NW 3.0 mph 9.0 mph 60% 0.00 in
10:29 40.6 °F 27.4 °F 30.15 in WNW 6.0 mph 11.0 mph 59% 0.00 in
10:34 41.0 °F 27.8 °F 30.15 in NW 3.0 mph 10.0 mph 59% 0.00 in
10:39 40.9 °F 27.7 °F 30.16 in NNW 1.0 mph 11.0 mph 59% 0.00 in
10:44 41.1 °F 27.9 °F 30.16 in NW 6.0 mph 9.0 mph 59% 0.00 in
10:49 41.3 °F 27.6 °F 30.16 in West 4.0 mph 10.0 mph 58% 0.00 in
10:54 41.3 °F 27.6 °F 30.16 in WNW 6.0 mph 11.0 mph 58% 0.00 in
10:59 41.5 °F 28.6 °F 30.16 in West 5.0 mph 11.0 mph 60% 0.00 in
11:04 42.3 °F 29.4 °F 30.16 in WNW 5.0 mph 10.0 mph 60% 0.00 in
11:09 42.0 °F 30.3 °F 30.16 in NNW 5.0 mph 10.0 mph 63% 0.00 in
11:14 40.5 °F 28.9 °F 30.16 in NNW 5.0 mph 10.0 mph 63% 0.00 in
11:19 39.8 °F 29.0 °F 30.16 in NW 4.0 mph 10.0 mph 65% 0.00 in
11:24 39.6 °F 28.8 °F 30.16 in NW 6.0 mph 8.0 mph 65% 0.00 in
11:29 40.3 °F 29.1 °F 30.16 in NW 7.0 mph 8.0 mph 64% 0.00 in
11:34 40.0 °F 28.4 °F 30.16 in NNW 4.0 mph 8.0 mph 63% 0.00 in
11:39 40.6 °F 29.4 °F 30.16 in West 4.0 mph 10.0 mph 64% 0.00 in
11:44 41.6 °F 29.9 °F 30.16 in NW 1.0 mph 7.0 mph 63% 0.00 in
11:49 41.6 °F 29.1 °F 30.16 in NW 3.0 mph 9.0 mph 61% 0.00 in
11:54 41.1 °F 28.7 °F 30.16 in WNW 4.0 mph 9.0 mph 61% 0.00 in
11:59 40.8 °F 29.2 °F 30.15 in NW 3.0 mph 9.0 mph 63% 0.00 in
12:04 40.3 °F 28.3 °F 30.16 in NNW 4.0 mph 8.0 mph 62% 0.00 in
12:09 40.2 °F 28.2 °F 30.16 in NNW 3.0 mph 8.0 mph 62% 0.00 in
12:14 40.0 °F 28.0 °F 30.15 in NNW 3.0 mph 8.0 mph 62% 0.00 in
12:19 40.1 °F 28.1 °F 30.15 in North 4.0 mph 9.0 mph 62% 0.00 in
12:24 39.9 °F 28.3 °F 30.15 in NNW 3.0 mph 9.0 mph 63% 0.00 in
12:29 40.9 °F 28.9 °F 30.15 in NNW 3.0 mph 8.0 mph 62% 0.00 in
12:34 41.1 °F 28.3 °F 30.15 in NW 8.0 mph 9.0 mph 60% 0.00 in
12:39 40.0 °F 28.0 °F 30.16 in WNW 1.0 mph 8.0 mph 62% 0.00 in
12:44 42.0 °F 29.9 °F 30.16 in NW 3.0 mph 5.0 mph 62% 0.00 in
12:49 41.9 °F 29.8 °F 30.16 in NW 4.0 mph 6.0 mph 62% 0.00 in
12:54 42.7 °F 29.4 °F 30.16 in NW 4.0 mph 9.0 mph 59% 0.00 in
12:59 43.1 °F 29.7 °F 30.17 in NNW 2.0 mph 8.0 mph 59% 0.00 in
13:04 42.9 °F 29.1 °F 30.17 in NNW 3.0 mph 8.0 mph 58% 0.00 in
13:09 41.6 °F 28.7 °F 30.17 in NW 3.0 mph 7.0 mph 60% 0.00 in
13:14 41.3 °F 29.6 °F 30.17 in NW 4.0 mph 7.0 mph 63% 0.00 in
13:19 40.4 °F 28.8 °F 30.17 in NNW 4.0 mph 7.0 mph 63% 0.00 in
13:24 40.1 °F 28.5 °F 30.16 in NNW 4.0 mph 7.0 mph 63% 0.00 in
13:29 40.1 °F 28.5 °F 30.16 in NNW 3.0 mph 7.0 mph 63% 0.00 in
13:34 40.0 °F 28.4 °F 30.16 in WNW 2.0 mph 6.0 mph 63% 0.00 in
13:39 39.6 °F 28.4 °F 30.15 in NW 2.0 mph 5.0 mph 64% 0.00 in
13:44 40.4 °F 28.8 °F 30.16 in NW 1.0 mph 6.0 mph 63% 0.00 in
13:49 40.9 °F 28.1 °F 30.16 in Calm   3.0 mph 60% 0.00 in
13:54 41.3 °F 28.9 °F 30.16 in West 2.0 mph 5.0 mph 61% 0.00 in
13:59 40.8 °F 28.8 °F 30.16 in SSW 1.0 mph 6.0 mph 62% 0.00 in
14:04 40.9 °F 28.5 °F 30.16 in SW 3.0 mph 6.0 mph 61% 0.00 in
14:09 40.6 °F 28.6 °F 30.16 in West 2.0 mph 6.0 mph 62% 0.00 in
14:14 40.2 °F 28.6 °F 30.16 in West 3.0 mph 8.0 mph 63% 0.00 in
14:19 40.2 °F 28.6 °F 30.17 in Calm   6.0 mph 63% 0.00 in
14:24 40.4 °F 29.2 °F 30.17 in NW 2.0 mph 4.0 mph 64% 0.00 in
14:29 40.3 °F 28.3 °F 30.17 in NNW 3.0 mph 3.0 mph 62% 0.00 in
14:34 40.2 °F 29.0 °F 30.17 in NNW 2.0 mph 4.0 mph 64% 0.00 in
14:39 40.1 °F 28.5 °F 30.17 in NNW 1.0 mph 4.0 mph 63% 0.00 in
14:44 39.9 °F 28.7 °F 30.17 in NNW 1.0 mph 6.0 mph 64% 0.00 in
14:49 39.7 °F 28.5 °F 30.17 in NNW 3.0 mph 5.0 mph 64% 0.00 in
14:54 39.8 °F 28.6 °F 30.17 in NNW 2.0 mph 5.0 mph 64% 0.00 in
14:59 40.2 °F 29.0 °F 30.17 in NNW 4.0 mph 5.0 mph 64% 0.00 in
15:04 40.3 °F 28.7 °F 30.17 in North 3.0 mph 5.0 mph 63% 0.00 in
15:09 40.5 °F 28.9 °F 30.17 in NNW 3.0 mph 5.0 mph 63% 0.00 in
15:14 40.9 °F 29.3 °F 30.18 in NNW 4.0 mph 4.0 mph 63% 0.00 in
15:19 40.5 °F 28.9 °F 30.17 in NNW 1.0 mph 4.0 mph 63% 0.00 in
15:24 40.1 °F 28.5 °F 30.17 in Calm   3.0 mph 63% 0.00 in
15:29 39.8 °F 28.6 °F 30.18 in NNW 1.0 mph 5.0 mph 64% 0.00 in
15:34 39.6 °F 28.8 °F 30.18 in North 1.0 mph 5.0 mph 65% 0.00 in
15:39 39.5 °F 28.3 °F 30.18 in North 1.0 mph 3.0 mph 64% 0.00 in
15:44 39.4 °F 28.2 °F 30.18 in North 2.0 mph 3.0 mph 64% 0.00 in
15:49 39.3 °F 28.1 °F 30.19 in North 1.0 mph 3.0 mph 64% 0.00 in
15:54 39.2 °F 28.4 °F 30.19 in Calm   1.0 mph 65% 0.00 in
15:59 39.2 °F 28.4 °F 30.19 in SW 3.0 mph 4.0 mph 65% 0.00 in
16:04 39.1 °F 28.7 °F 30.19 in WSW 1.0 mph 6.0 mph 66% 0.00 in
16:09 39.1 °F 28.7 °F 30.19 in WSW 1.0 mph 6.0 mph 66% 0.00 in
16:14 38.9 °F 28.5 °F 30.19 in West 2.0 mph 3.0 mph 66% 0.00 in
16:19 38.9 °F 28.5 °F 30.19 in WNW 3.0 mph 3.0 mph 66% 0.00 in
16:24 38.9 °F 28.5 °F 30.19 in WSW 3.0 mph 5.0 mph 66% 0.00 in
16:29 38.8 °F 28.8 °F 30.20 in Calm   4.0 mph 67% 0.00 in
16:34 38.6 °F 28.6 °F 30.20 in Calm     67% 0.00 in
16:39 38.2 °F 28.2 °F 30.20 in Calm   4.0 mph 67% 0.00 in
16:44 37.9 °F 27.9 °F 30.20 in ENE 1.0 mph 4.0 mph 67% 0.00 in
16:49 37.7 °F 28.1 °F 30.20 in ENE 2.0 mph 5.0 mph 68% 0.00 in
16:54 37.4 °F 27.8 °F 30.21 in ENE 2.0 mph 5.0 mph 68% 0.00 in
16:59 37.1 °F 27.5 °F 30.21 in Calm   2.0 mph 68% 0.00 in
17:04 36.8 °F 27.6 °F 30.20 in NE 1.0 mph 4.0 mph 69% 0.00 in
17:09 36.6 °F 27.4 °F 30.20 in NE 2.0 mph 5.0 mph 69% 0.00 in
17:14 36.5 °F 27.6 °F 30.20 in Calm   4.0 mph 70% 0.00 in
17:19 36.4 °F 27.5 °F 30.21 in ENE 2.0 mph 7.0 mph 70% 0.00 in
17:24 36.2 °F 27.4 °F 30.21 in NE 4.0 mph 9.0 mph 70% 0.00 in
17:29 36.0 °F 27.2 °F 30.20 in ENE 7.0 mph 8.0 mph 70% 0.00 in
17:34 35.9 °F 27.1 °F 30.21 in NE 3.0 mph 7.0 mph 70% 0.00 in
17:39 35.7 °F 26.9 °F 30.20 in NE 3.0 mph 7.0 mph 70% 0.00 in
17:44 35.5 °F 26.7 °F 30.20 in ENE 3.0 mph 7.0 mph 70% 0.00 in
17:49 35.3 °F 26.8 °F 30.21 in ENE 3.0 mph 8.0 mph 71% 0.00 in
17:54 35.1 °F 26.6 °F 30.21 in ENE 3.0 mph 8.0 mph 71% 0.00 in
17:59 35.0 °F 26.5 °F 30.21 in NE 3.0 mph 8.0 mph 71% 0.00 in
18:04 34.8 °F 26.4 °F 30.21 in NE 3.0 mph 9.0 mph 71% 0.00 in
18:09 34.6 °F 26.2 °F 30.21 in ENE 4.0 mph 9.0 mph 71% 0.00 in
18:14 34.4 °F 26.3 °F 30.20 in ENE 3.0 mph 8.0 mph 72% 0.00 in
18:19 34.3 °F 26.2 °F 30.20 in ENE 1.0 mph 6.0 mph 72% 0.00 in
18:24 34.1 °F 26.0 °F 30.20 in East 3.0 mph 7.0 mph 72% 0.00 in
18:29 33.9 °F 25.8 °F 30.20 in East 1.0 mph 6.0 mph 72% 0.00 in
18:34 33.6 °F 25.9 °F 30.20 in East 6.0 mph 6.0 mph 73% 0.00 in
18:39 33.5 °F 25.8 °F 30.20 in East 2.0 mph 7.0 mph 73% 0.00 in
18:44 33.2 °F 25.5 °F 30.21 in ENE 3.0 mph 7.0 mph 73% 0.00 in
18:49 33.1 °F 25.4 °F 30.22 in ENE 3.0 mph 7.0 mph 73% 0.00 in
18:54 32.9 °F 25.5 °F 30.21 in Calm   5.0 mph 74% 0.00 in
18:59 32.8 °F 25.4 °F 30.21 in East 5.0 mph 5.0 mph 74% 0.00 in
19:04 32.7 °F 25.3 °F 30.21 in ENE 2.0 mph 8.0 mph 74% 0.00 in
19:09 32.6 °F 25.6 °F 30.21 in East 2.0 mph 5.0 mph 75% 0.00 in
19:14 32.4 °F 25.4 °F 30.21 in ENE 3.0 mph 7.0 mph 75% 0.00 in
19:19 32.3 °F 25.3 °F 30.21 in East 3.0 mph 9.0 mph 75% 0.00 in
19:24 32.2 °F 25.2 °F 30.21 in East 3.0 mph 9.0 mph 75% 0.00 in
19:29 31.9 °F 24.9 °F 30.21 in East 2.0 mph 7.0 mph 75% 0.00 in
19:34 31.8 °F 25.1 °F 30.20 in NE 2.0 mph 7.0 mph 76% 0.00 in
19:39 31.6 °F 24.9 °F 30.20 in ENE 2.0 mph 5.0 mph 76% 0.00 in
19:44 31.5 °F 24.8 °F 30.20 in East 2.0 mph 5.0 mph 76% 0.00 in
19:49 31.4 °F 25.0 °F 30.20 in East 3.0 mph 5.0 mph 77% 0.00 in
19:54 31.3 °F 24.9 °F 30.20 in East 2.0 mph 6.0 mph 77% 0.00 in
19:59 31.2 °F 24.8 °F 30.21 in East 2.0 mph 6.0 mph 77% 0.00 in
20:04 31.1 °F 24.7 °F 30.21 in ENE 4.0 mph 7.0 mph 77% 0.00 in
20:09 31.0 °F 24.6 °F 30.21 in East 3.0 mph 6.0 mph 77% 0.00 in
20:14 31.0 °F 24.9 °F 30.21 in East 2.0 mph 6.0 mph 78% 0.00 in
20:19 30.9 °F 24.8 °F 30.21 in East 2.0 mph 5.0 mph 78% 0.00 in
20:24 30.9 °F 24.8 °F 30.21 in East 2.0 mph 5.0 mph 78% 0.00 in
20:29 30.7 °F 24.7 °F 30.20 in ENE 2.0 mph 6.0 mph 78% 0.00 in
20:34 30.7 °F 24.7 °F 30.21 in East 2.0 mph 6.0 mph 78% 0.00 in
20:39 30.6 °F 24.9 °F 30.21 in East 5.0 mph 5.0 mph 79% 0.00 in
20:44 30.5 °F 24.8 °F 30.21 in East 1.0 mph 5.0 mph 79% 0.00 in
20:49 30.5 °F 24.8 °F 30.22 in East 2.0 mph 5.0 mph 79% 0.00 in
20:54 30.4 °F 24.7 °F 30.22 in East 1.0 mph 5.0 mph 79% 0.00 in
20:59 30.4 °F 24.7 °F 30.22 in ENE 1.0 mph 4.0 mph 79% 0.00 in
21:04 30.4 °F 24.7 °F 30.22 in East 2.0 mph 6.0 mph 79% 0.00 in
21:09 30.4 °F 24.7 °F 30.22 in East 2.0 mph 5.0 mph 79% 0.00 in
21:14 30.3 °F 24.6 °F 30.22 in ENE 1.0 mph 6.0 mph 79% 0.00 in
21:19 30.4 °F 24.7 °F 30.22 in ENE 2.0 mph 6.0 mph 79% 0.00 in
21:24 30.4 °F 24.7 °F 30.22 in ENE 2.0 mph 5.0 mph 79% 0.00 in
21:29 30.4 °F 25.0 °F 30.21 in ENE 2.0 mph 6.0 mph 80% 0.00 in
21:34 30.3 °F 24.9 °F 30.21 in East 2.0 mph 6.0 mph 80% 0.00 in
21:39 30.2 °F 24.8 °F 30.21 in East 2.0 mph 5.0 mph 80% 0.00 in
21:44 30.1 °F 24.7 °F 30.21 in Calm   3.0 mph 80% 0.00 in
21:49 30.1 °F 24.7 °F 30.21 in East 1.0 mph 3.0 mph 80% 0.00 in
21:54 30.0 °F 24.6 °F 30.21 in East 1.0 mph 3.0 mph 80% 0.00 in
21:59 29.9 °F 24.5 °F 30.21 in East 1.0 mph 5.0 mph 80% 0.00 in
22:04 29.9 °F 24.8 °F 30.21 in ESE 4.0 mph 5.0 mph 81% 0.00 in
22:09 29.9 °F 24.5 °F 30.21 in ESE 1.0 mph 5.0 mph 80% 0.00 in
22:14 29.7 °F 24.6 °F 30.20 in East 1.0 mph 3.0 mph 81% 0.00 in
22:19 29.7 °F 24.6 °F 30.20 in East 1.0 mph 6.0 mph 81% 0.00 in
22:24 29.6 °F 24.5 °F 30.21 in East 1.0 mph 6.0 mph 81% 0.00 in
22:29 29.5 °F 24.4 °F 30.21 in East 2.0 mph 5.0 mph 81% 0.00 in
22:34 29.4 °F 24.3 °F 30.20 in East 1.0 mph 3.0 mph 81% 0.00 in
22:39 29.3 °F 24.2 °F 30.21 in East 2.0 mph 5.0 mph 81% 0.00 in
22:44 29.4 °F 24.6 °F 30.20 in East 1.0 mph 5.0 mph 82% 0.00 in
22:49 29.3 °F 24.5 °F 30.20 in East 1.0 mph 4.0 mph 82% 0.00 in
22:54 29.3 °F 24.5 °F 30.20 in East 2.0 mph 5.0 mph 82% 0.00 in
22:59 29.3 °F 24.5 °F 30.21 in ENE 1.0 mph 4.0 mph 82% 0.00 in
23:04 29.4 °F 24.6 °F 30.21 in East 2.0 mph 6.0 mph 82% 0.00 in
23:09 29.5 °F 24.7 °F 30.20 in East 3.0 mph 5.0 mph 82% 0.00 in
23:14 29.6 °F 24.8 °F 30.20 in ENE 1.0 mph 5.0 mph 82% 0.00 in
23:19 29.7 °F 24.9 °F 30.20 in ENE 1.0 mph 3.0 mph 82% 0.00 in
23:24 29.7 °F 24.9 °F 30.20 in East 3.0 mph 5.0 mph 82% 0.00 in
23:29 29.6 °F 24.8 °F 30.20 in ENE 1.0 mph 6.0 mph 82% 0.00 in
23:34 29.7 °F 24.9 °F 30.20 in East 1.0 mph 6.0 mph 82% 0.00 in
23:39 29.6 °F 24.8 °F 30.20 in East 1.0 mph 3.0 mph 82% 0.00 in
23:44 29.6 °F 24.8 °F 30.20 in Calm   5.0 mph 82% 0.00 in
23:49 29.5 °F 24.7 °F 30.20 in East 1.0 mph 6.0 mph 82% 0.00 in
23:54 29.5 °F 24.7 °F 30.20 in East 1.0 mph 6.0 mph 82% 0.00 in
23:59 29.6 °F 24.8 °F 30.20 in East 1.0 mph 5.0 mph 82% 0.00 in
Buffalo, New York, USA
Compliments of Weather Underground - 2.5 mb